Aérodrome :
LOGIN :

S'inscrire | Disclaimer

   EN    FR    IT 

 










Légende :    VFR   VFR Marginal   IFR   IFR Intensif   IFR Très Intensif
Visi : 
Plafond : 
>= 8 km
>= 3000ft
5 à 8 km
1000 à 3000 ft
1500m à 5 km
500 à 1000 ft
800 à 1500m
200 à 500 ft
< 800m
< 200 ft
Symboles :   Orages  Brouillard  Fortes neiges  Fortes précipitations  Vent > 20 kt
SIGMETs :   Divers  Orages  Givrage  Turbulence  Onde Orograph.  Cendres Volcan.






- Altitude de l'aérodrome : 200 ft


EBBL - Klein Brogel AB

DERNIER METAR :
  • 150725Z AUTO 24018KT 9999 FEW030/// 08/04 Q0996 BLU

METARs EXPIRÉS :
  • 150655Z AUTO 24016KT 9999 FEW083/// 08/05 Q0996 BLU
  • 150625Z AUTO 23015KT 9999 FEW067/// BKN083/// BKN100/// 08/05 Q0995 BLU
  • 150555Z AUTO 24018KT 9999 SCT053/// OVC068/// 08/05 Q0994 BLU
  • 150525Z AUTO 25020G31KT 9999 -RA FEW013/// OVC038/// 08/06 Q0993 BLU
  • 150519Z AUTO 25018G29KT 9999 -RA FEW013/// OVC016/// 08/06 Q0993 WHT
  • 150505Z AUTO 25016G27KT 4000 -RA OVC017/// 08/07 Q0993 GRN

TAF TAF EBBL
Valide du 15 à 07h jusqu'au 15 à 16h UTC


150541Z 1507/1516 23512G25KT 7000 BKN020
BECMG 1507/1509 9999 FEW020 SCT090
BECMG 1509/1511 FEW020 SCT250
BECMG 1514/1516 SCT230



MET'MAP, la Météo Aéronautique d'un coup d'oeil ! - Copyright ORBIFLY Décembre 2007 - Disclaimer

ORBIFLY MET'MAP TEAM :

Programmation & Développement : Alexandra Zaïnal
Sur une idée originale de : Baudouin d'Aumeries
Assistance à la programmation : Marc-Olivier Méhu
Soutien technique & logistique : Manuel Goepfert

Contact : metmap@orbifly.com




SOURCES & CREDITS :

   NOAA